Wolf, WY (82844)

8:11 PM MST on December 17, 2014 (GMT -0700)
KWYSHERI2 | Change Station
CLOSE
Current Station
Personal Weather Station
Location: Sheridan, WY
Elevation: 3828 ft
Nearby Weather Stations

Elev 3828 ft 44.81 °N, 106.98 °W | Updated 9 minutes ago

Clear
Clear
17.3 °F
Feels Like 17 °F
N
0.0
Wind Variable Wind from SSE
Gusts 0.0 mph

Today
High -- | Low -- °F
--% Chance of Precip.
Yesterday
High -- | Low -- °F
Precip. -- in
7:41 AM 4:29 PM
Waning Crescent, 18% visible
Pressure 30.12 in
Visibility 10.0 miles
Clouds Clear
Windchill 17 °F
Dew Point 14 °F
Humidity 87%
Rainfall 0.00 in
Snow Depth Not available.
UV out of 12
Pollen .10 out of 12
Air Quality Not available.
Flu Activity Not available.
METAR KSHR 180253Z AUTO 30003KT 10SM CLR M11/M13 A2993 RMK AO2 SLP200 T11061128 56001

More Conditions Fewer Conditions

Pressure 30.12 in
Visibility 10.0 miles
Clouds Clear
Windchill 17 °F
Dew Point 14 °F
Humidity 87%
Rainfall 0.00 in
Snow Depth Not available.
UV out of 12
Pollen .10 out of 12
Air Quality Not available.
Flu Activity Not available.
METAR KSHR 180253Z AUTO 30003KT 10SM CLR M11/M13 A2993 RMK AO2 SLP200 T11061128 56001

More Conditions Fewer Conditions

10-Day Weather Forecast

Almanac

Astronomy

Dec. 17, 2014 Rise Set
Actual Time
Civil Twilight
Nautical Twilight
Astronomical Twilight
Moon
Length of Visible Light
Length of Day
Tomorrow will be .
, % of the Moon is Illuminated

Today's Extremes

State Highs State Lows

Community

WunderPhotos

Upload Photos

1,778,874 photos uploaded!

WunderBlogs® & News

Nearby

Air Quality

  Air Quality AQ Index Pollutant
Not available.

Snow Depth

Station Depth Elevation

Earthquake Activity

City Distance Mag. Time & Date
Minimum magnitude displayed is 2.5.

Coastal Water Temperatures

Place Temperature

Nearby Weather Stations